createdAt,value
2019-05-29T00:01:18.558Z,7.62
2019-05-29T00:03:45.530Z,9.13
2019-05-29T00:06:16.807Z,10.13
2019-05-29T00:08:46.607Z,10.58
2019-05-29T00:11:16.350Z,9.63
2019-05-29T00:13:46.239Z,9.98
2019-05-29T00:16:15.952Z,10.50
2019-05-29T00:18:45.719Z,9.78
2019-05-29T00:21:15.366Z,9.83
2019-05-29T00:23:45.038Z,10.55
2019-05-29T00:26:14.668Z,9.65
2019-05-29T00:28:44.437Z,9.95
2019-05-29T00:31:14.091Z,9.98
2019-05-29T00:33:44.783Z,10.75
2019-05-29T00:36:14.667Z,11.00
2019-05-29T00:38:44.435Z,10.88
2019-05-29T00:41:15.079Z,11.30
2019-05-29T00:43:45.595Z,12.00
2019-05-29T00:46:15.608Z,12.45
2019-05-29T00:48:45.263Z,12.85
2019-05-29T00:51:15.193Z,13.32
2019-05-29T00:53:45.011Z,14.33
2019-05-29T00:56:14.740Z,14.47
2019-05-29T00:58:44.595Z,15.85
2019-05-29T01:01:15.465Z,15.50
2019-05-29T01:03:45.331Z,15.05
2019-05-29T01:06:15.999Z,16.20
2019-05-29T01:08:45.925Z,15.80
2019-05-29T01:11:16.811Z,16.25
2019-05-29T01:13:46.641Z,15.45
2019-05-29T01:16:17.481Z,15.93
2019-05-29T01:18:47.511Z,16.37
2019-05-29T01:21:17.988Z,17.02
2019-05-29T01:23:49.692Z,17.37
2019-05-29T01:26:19.363Z,17.98
2019-05-29T01:28:49.384Z,16.60
2019-05-29T01:31:19.358Z,18.25
2019-05-29T01:33:49.027Z,16.80
2019-05-29T01:36:20.018Z,18.02
2019-05-29T01:38:49.879Z,17.23
2019-05-29T01:41:19.480Z,18.07
2019-05-29T01:43:49.179Z,18.42
2019-05-29T01:46:19.760Z,17.95
2019-05-29T01:48:49.409Z,17.65
2019-05-29T01:51:19.545Z,19.70
2019-05-29T01:53:49.215Z,17.87
2019-05-29T01:56:21.707Z,17.60
2019-05-29T01:58:50.341Z,18.62
2019-05-29T02:01:20.070Z,18.52
2019-05-29T02:03:50.036Z,18.35
2019-05-29T02:06:20.036Z,17.90
2019-05-29T02:08:49.856Z,17.05
2019-05-29T02:11:19.701Z,17.67
2019-05-29T02:13:49.369Z,17.92
2019-05-29T02:16:20.584Z,17.85
2019-05-29T02:18:50.425Z,18.52
2019-05-29T02:21:20.226Z,18.05
2019-05-29T02:23:50.044Z,18.05
2019-05-29T02:26:20.575Z,17.82
2019-05-29T02:28:50.363Z,18.82
2019-05-29T02:31:21.950Z,19.00
2019-05-29T02:33:51.551Z,18.32
2019-05-29T02:36:22.353Z,19.20
2019-05-29T02:38:52.117Z,18.92
2019-05-29T02:41:24.106Z,19.27
2019-05-29T02:43:53.479Z,19.10
2019-05-29T02:46:23.935Z,19.85
2019-05-29T02:48:54.516Z,20.27
2019-05-29T02:51:24.829Z,19.82
2019-05-29T02:53:55.934Z,19.52
2019-05-29T02:56:27.029Z,20.43
2019-05-29T02:58:57.061Z,20.90
2019-05-29T03:01:27.792Z,19.75
2019-05-29T03:03:58.619Z,22.40
2019-05-29T03:06:30.149Z,21.07
2019-05-29T03:09:00.717Z,21.68
2019-05-29T03:11:31.204Z,22.95
2019-05-29T03:14:03.873Z,21.95
2019-05-29T03:16:34.857Z,22.37
2019-05-29T03:19:05.441Z,22.77
2019-05-29T03:21:36.108Z,22.87
2019-05-29T03:24:06.622Z,22.35
2019-05-29T03:26:38.407Z,22.98
2019-05-29T03:29:09.007Z,24.35
2019-05-29T03:31:46.495Z,25.35
2019-05-29T03:34:12.527Z,25.05
2019-05-29T03:36:47.852Z,26.93
2019-05-29T03:39:15.657Z,27.22
2019-05-29T03:41:46.365Z,27.05
2019-05-29T03:44:17.219Z,25.32
2019-05-29T03:46:47.946Z,25.20
2019-05-29T03:49:18.554Z,25.57
2019-05-29T03:51:49.092Z,24.55
2019-05-29T03:54:21.275Z,24.23
2019-05-29T03:56:51.450Z,23.95
2019-05-29T03:59:21.969Z,23.83
2019-05-29T04:01:52.562Z,22.90
2019-05-29T04:04:22.930Z,24.27
2019-05-29T04:06:53.503Z,23.85
2019-05-29T04:09:24.272Z,22.98
2019-05-29T04:11:54.779Z,23.65
2019-05-29T04:14:27.595Z,23.10
2019-05-29T04:17:01.027Z,23.52
2019-05-29T04:19:32.635Z,24.27
2019-05-29T04:22:13.602Z,24.80
2019-05-29T04:24:45.703Z,24.12
2019-05-29T04:27:21.351Z,23.77
2019-05-29T04:29:53.430Z,24.72
2019-05-29T04:32:23.633Z,24.00
2019-05-29T04:34:54.448Z,25.32
2019-05-29T04:37:25.044Z,25.72
2019-05-29T04:39:55.584Z,25.55
2019-05-29T04:42:26.187Z,24.40
2019-05-29T04:44:56.733Z,24.55
2019-05-29T04:47:28.801Z,25.35
2019-05-29T04:49:59.585Z,25.65
2019-05-29T04:52:31.359Z,25.35
2019-05-29T04:55:01.971Z,24.70
2019-05-29T04:57:32.833Z,25.88
2019-05-29T05:00:03.505Z,25.85
2019-05-29T05:02:35.062Z,24.37
2019-05-29T05:05:07.373Z,25.00
2019-05-29T05:07:38.046Z,25.65
2019-05-29T05:10:09.495Z,24.45
2019-05-29T05:12:40.658Z,25.08
2019-05-29T05:15:11.366Z,27.65
2019-05-29T05:17:41.683Z,29.07
2019-05-29T05:20:12.174Z,27.90
2019-05-29T05:22:42.840Z,29.70
2019-05-29T05:25:13.424Z,29.77
2019-05-29T05:27:43.921Z,29.57
2019-05-29T05:30:14.494Z,31.10
2019-05-29T05:32:48.167Z,29.07
2019-05-29T05:35:19.075Z,31.05
2019-05-29T05:37:49.511Z,31.95
2019-05-29T05:40:20.186Z,31.05
2019-05-29T05:42:50.695Z,32.23
2019-05-29T05:45:21.331Z,32.05
2019-05-29T05:47:57.420Z,30.95
2019-05-29T05:50:24.616Z,30.57
2019-05-29T05:52:55.055Z,30.75
2019-05-29T05:55:25.450Z,29.85
2019-05-29T05:57:55.911Z,30.70
2019-05-29T06:00:35.803Z,30.50
2019-05-29T06:03:07.155Z,30.32
2019-05-29T06:05:38.284Z,29.92
2019-05-29T06:08:08.992Z,30.32
2019-05-29T06:10:40.247Z,29.67
2019-05-29T06:13:11.170Z,28.75
2019-05-29T06:15:42.955Z,30.23
2019-05-29T06:18:21.154Z,29.72
2019-05-29T06:20:45.934Z,30.35
2019-05-29T06:23:16.453Z,27.50
2019-05-29T06:25:47.014Z,28.30
2019-05-29T06:28:17.717Z,27.40
2019-05-29T06:30:48.178Z,26.73
2019-05-29T06:33:18.807Z,26.05
2019-05-29T06:35:49.361Z,25.62
2019-05-29T06:38:20.301Z,24.50
2019-05-29T06:40:50.684Z,25.10
2019-05-29T06:43:25.868Z,24.85
2019-05-29T06:45:57.564Z,27.67
2019-05-29T06:48:46.244Z,23.45
2019-05-29T06:51:05.393Z,23.75
2019-05-29T06:53:35.800Z,19.35
2019-05-29T06:56:06.399Z,19.25
2019-05-29T06:58:38.084Z,19.98
2019-05-29T07:01:08.978Z,20.32
2019-05-29T07:03:41.757Z,24.67
2019-05-29T07:06:12.354Z,20.50
2019-05-29T07:08:46.457Z,17.40
2019-05-29T07:11:16.476Z,19.92
2019-05-29T07:13:50.121Z,19.48
2019-05-29T07:16:19.656Z,20.05
2019-05-29T07:19:23.985Z,21.90
2019-05-29T07:21:22.164Z,20.65
2019-05-29T07:23:52.927Z,21.15
2019-05-29T07:26:23.361Z,21.37
2019-05-29T07:29:06.579Z,20.68
2019-05-29T07:31:26.202Z,20.62
2019-05-29T07:33:56.824Z,24.95
2019-05-29T07:36:27.316Z,22.67
2019-05-29T07:39:03.710Z,21.95
2019-05-29T07:41:30.060Z,22.22
2019-05-29T07:44:00.641Z,22.15
2019-05-29T07:46:30.841Z,29.00
2019-05-29T07:49:00.927Z,24.50
2019-05-29T07:51:31.259Z,22.73
2019-05-29T07:54:01.578Z,22.52
2019-05-29T07:56:32.038Z,21.27
2019-05-29T07:59:03.634Z,21.62
2019-05-29T08:01:34.082Z,21.23
2019-05-29T08:04:04.275Z,22.37
2019-05-29T08:06:34.596Z,21.55
2019-05-29T08:09:06.222Z,21.60
2019-05-29T08:11:36.264Z,21.60
2019-05-29T08:14:06.500Z,19.52
2019-05-29T08:16:36.807Z,21.97
2019-05-29T08:19:08.098Z,20.23
2019-05-29T08:21:38.488Z,18.95
2019-05-29T08:24:08.815Z,18.45
2019-05-29T08:26:40.653Z,18.45
2019-05-29T08:29:11.133Z,18.95
2019-05-29T08:31:42.662Z,19.40
2019-05-29T08:34:13.067Z,18.73
2019-05-29T08:36:59.986Z,19.07
2019-05-29T08:39:33.456Z,18.73
2019-05-29T08:42:20.639Z,17.95
2019-05-29T08:44:20.360Z,18.77
2019-05-29T08:47:06.341Z,17.15
2019-05-29T08:49:22.497Z,16.85
2019-05-29T08:52:10.202Z,14.50
2019-05-29T08:54:24.603Z,14.68
2019-05-29T08:56:55.037Z,15.23
2019-05-29T08:59:25.265Z,15.65
2019-05-29T09:01:55.702Z,14.30
2019-05-29T09:04:26.181Z,13.90
2019-05-29T09:06:56.489Z,12.70
2019-05-29T09:09:26.845Z,10.43
2019-05-29T09:11:57.226Z,9.20
2019-05-29T09:14:27.454Z,8.68
2019-05-29T09:16:58.039Z,9.33
2019-05-29T09:19:28.232Z,9.30
2019-05-29T09:21:58.835Z,9.43
2019-05-29T09:24:29.099Z,8.15
2019-05-29T09:26:59.648Z,8.95
2019-05-29T09:29:29.873Z,12.45
2019-05-29T09:32:00.231Z,16.95
2019-05-29T09:34:30.649Z,14.30
2019-05-29T09:37:00.889Z,10.85
2019-05-29T09:39:30.980Z,10.13
2019-05-29T09:42:01.255Z,10.05
2019-05-29T09:44:38.809Z,10.63
2019-05-29T09:47:03.605Z,10.80
2019-05-29T09:49:34.026Z,10.82
2019-05-29T09:52:04.319Z,9.90
2019-05-29T09:54:34.890Z,10.50
2019-05-29T09:57:05.410Z,9.48
2019-05-29T09:59:35.611Z,9.80
2019-05-29T10:02:08.956Z,8.45
2019-05-29T10:04:37.627Z,11.00
2019-05-29T10:07:08.092Z,12.37
2019-05-29T10:09:38.369Z,9.98
2019-05-29T10:12:08.847Z,9.75
2019-05-29T10:14:38.864Z,8.78
2019-05-29T10:17:12.736Z,9.00
2019-05-29T10:19:40.976Z,7.20
2019-05-29T10:22:11.117Z,7.70
2019-05-29T10:24:41.571Z,7.60
2019-05-29T10:27:11.785Z,7.55
2019-05-29T10:29:42.474Z,7.87
2019-05-29T10:32:12.847Z,7.95
2019-05-29T10:34:44.234Z,7.10
2019-05-29T10:37:17.945Z,8.03
2019-05-29T10:39:47.195Z,7.97
2019-05-29T10:42:20.535Z,8.38
2019-05-29T10:44:51.154Z,8.20
2019-05-29T10:47:21.592Z,8.00
2019-05-29T10:49:51.853Z,8.13
2019-05-29T10:52:22.040Z,7.60
2019-05-29T10:54:52.521Z,7.03
2019-05-29T10:57:22.688Z,8.18
2019-05-29T10:59:53.005Z,6.80
2019-05-29T11:02:23.134Z,6.37
2019-05-29T11:04:56.457Z,5.72
2019-05-29T11:07:25.290Z,6.47
2019-05-29T11:09:56.225Z,6.50
2019-05-29T11:12:26.800Z,5.80
2019-05-29T11:14:57.067Z,6.53
2019-05-29T11:17:27.504Z,5.12
2019-05-29T11:19:58.321Z,4.58
2019-05-29T11:22:28.716Z,4.67
2019-05-29T11:25:18.834Z,5.33
2019-05-29T11:27:30.684Z,5.37
2019-05-29T11:30:00.922Z,5.58
2019-05-29T11:32:31.214Z,4.97
2019-05-29T11:35:02.247Z,4.95
2019-05-29T11:37:32.661Z,5.45
2019-05-29T11:40:03.335Z,4.97
2019-05-29T11:42:33.645Z,4.50
2019-05-29T11:45:05.400Z,4.37
2019-05-29T11:47:35.719Z,4.85
2019-05-29T11:50:19.673Z,4.55
2019-05-29T11:52:45.897Z,5.70
2019-05-29T11:55:16.626Z,5.08
2019-05-29T11:57:47.033Z,5.00
2019-05-29T12:00:20.729Z,4.45
2019-05-29T12:02:51.278Z,4.60
2019-05-29T12:05:22.064Z,4.00
2019-05-29T12:07:53.495Z,3.85
2019-05-29T12:10:24.128Z,3.35
2019-05-29T12:12:55.429Z,3.55
2019-05-29T12:15:25.840Z,3.55
2019-05-29T12:18:18.490Z,3.33
2019-05-29T12:20:29.113Z,3.27
2019-05-29T12:23:18.605Z,3.58
2019-05-29T12:25:31.450Z,3.30
2019-05-29T12:28:03.238Z,3.35
2019-05-29T12:30:34.248Z,3.25
2019-05-29T12:33:04.756Z,3.67
2019-05-29T12:35:35.105Z,3.37
2019-05-29T12:38:05.609Z,3.45
2019-05-29T12:40:35.971Z,3.90
2019-05-29T12:43:06.800Z,3.60
2019-05-29T12:45:37.234Z,4.10
2019-05-29T12:48:13.288Z,4.12
2019-05-29T12:50:39.474Z,3.30
2019-05-29T12:53:09.797Z,3.72
2019-05-29T12:55:40.609Z,3.90
2019-05-29T12:58:10.982Z,4.00
2019-05-29T13:00:41.580Z,3.75
2019-05-29T13:03:11.743Z,3.67
2019-05-29T13:05:43.751Z,3.98
2019-05-29T13:08:14.225Z,3.20
2019-05-29T13:10:44.698Z,3.00
2019-05-29T13:13:15.288Z,2.90
2019-05-29T13:15:46.077Z,3.17
2019-05-29T13:18:16.586Z,2.75
2019-05-29T13:20:47.093Z,2.80
2019-05-29T13:23:17.445Z,2.50
2019-05-29T13:25:47.962Z,2.98
2019-05-29T13:28:18.069Z,2.95
2019-05-29T13:30:48.492Z,4.05
2019-05-29T13:33:18.604Z,3.42
2019-05-29T13:35:48.644Z,3.35
2019-05-29T13:38:19.042Z,3.33
2019-05-29T13:40:49.307Z,3.27
2019-05-29T13:43:19.868Z,3.37
2019-05-29T13:45:50.545Z,3.10
2019-05-29T13:48:23.386Z,3.02
2019-05-29T13:50:52.871Z,3.55
2019-05-29T13:53:23.511Z,2.90
2019-05-29T13:55:53.819Z,2.77
2019-05-29T13:58:24.017Z,2.80
2019-05-29T14:00:55.412Z,2.60
2019-05-29T14:03:25.749Z,2.20
2019-05-29T14:05:56.031Z,2.77
2019-05-29T14:08:26.134Z,2.40
2019-05-29T14:10:56.485Z,2.55
2019-05-29T14:13:26.971Z,2.12
2019-05-29T14:15:57.428Z,2.08
2019-05-29T14:18:27.974Z,2.20
2019-05-29T14:20:58.381Z,1.62
2019-05-29T14:23:28.929Z,1.80
2019-05-29T14:26:00.411Z,2.52
2019-05-29T14:28:30.776Z,2.35
2019-05-29T14:31:01.980Z,2.40
2019-05-29T14:33:32.474Z,2.20
2019-05-29T14:36:03.429Z,2.10
2019-05-29T14:38:34.363Z,2.30
2019-05-29T14:41:05.700Z,1.72
2019-05-29T14:43:36.660Z,2.05
2019-05-29T14:46:08.117Z,1.95
2019-05-29T14:48:38.852Z,1.72
2019-05-29T14:51:08.994Z,1.72
2019-05-29T14:53:39.162Z,1.60
2019-05-29T14:56:10.592Z,1.55
2019-05-29T14:58:41.243Z,1.40
2019-05-29T15:01:11.566Z,1.45
2019-05-29T15:03:41.734Z,1.70
2019-05-29T15:06:11.797Z,2.05
2019-05-29T15:08:42.497Z,1.92
2019-05-29T15:11:14.097Z,1.90
2019-05-29T15:13:45.122Z,1.70
2019-05-29T15:16:15.547Z,1.85
2019-05-29T15:18:46.195Z,1.70
2019-05-29T15:21:16.939Z,1.80
2019-05-29T15:23:47.143Z,2.10
2019-05-29T15:26:17.227Z,2.20
2019-05-29T15:28:47.762Z,2.10
2019-05-29T15:31:18.525Z,2.40
2019-05-29T15:33:49.000Z,2.12
2019-05-29T15:36:19.504Z,2.00
2019-05-29T15:38:49.763Z,1.95
2019-05-29T15:41:20.190Z,1.87
2019-05-29T15:43:50.765Z,1.87
2019-05-29T15:46:21.035Z,1.80
2019-05-29T15:48:51.989Z,1.72
2019-05-29T15:51:22.714Z,1.75
2019-05-29T15:53:53.336Z,1.55
2019-05-29T15:56:27.897Z,1.72
2019-05-29T15:58:56.167Z,1.70
2019-05-29T16:01:26.523Z,1.70
2019-05-29T16:03:57.450Z,3.25
2019-05-29T16:06:27.893Z,2.83
2019-05-29T16:08:58.511Z,2.70
2019-05-29T16:11:28.933Z,2.75
2019-05-29T16:13:59.695Z,2.50
2019-05-29T16:16:30.242Z,2.83
2019-05-29T16:19:00.664Z,2.45
2019-05-29T16:21:30.975Z,2.80
2019-05-29T16:24:01.269Z,2.27
2019-05-29T16:26:31.919Z,2.25
2019-05-29T16:29:04.106Z,2.67
2019-05-29T16:31:34.665Z,2.62
2019-05-29T16:34:04.995Z,2.40
2019-05-29T16:36:35.609Z,3.40
2019-05-29T16:39:08.855Z,2.70
2019-05-29T16:41:39.811Z,2.30
2019-05-29T16:44:11.921Z,2.02
2019-05-29T16:46:42.395Z,2.72
2019-05-29T16:49:12.756Z,2.80
2019-05-29T16:51:42.975Z,2.25
2019-05-29T16:54:13.263Z,2.30
2019-05-29T16:56:44.196Z,2.47
2019-05-29T16:59:14.910Z,2.85
2019-05-29T17:01:45.199Z,2.55
2019-05-29T17:04:15.929Z,2.20
2019-05-29T17:06:46.689Z,2.90
2019-05-29T17:09:18.276Z,2.20
2019-05-29T17:11:48.691Z,2.52
2019-05-29T17:14:19.154Z,2.20
2019-05-29T17:16:49.791Z,2.50
2019-05-29T17:19:20.735Z,2.30
2019-05-29T17:21:52.692Z,2.55
2019-05-29T17:24:23.428Z,2.83
2019-05-29T17:26:55.009Z,3.10
2019-05-29T17:29:25.856Z,3.35
2019-05-29T17:31:56.571Z,2.77
2019-05-29T17:34:27.248Z,2.98
2019-05-29T17:36:59.568Z,3.20
2019-05-29T17:39:50.389Z,3.87
2019-05-29T17:42:22.448Z,3.95
2019-05-29T17:44:52.672Z,4.08
2019-05-29T17:47:23.641Z,4.30
2019-05-29T17:49:53.937Z,3.67
2019-05-29T17:52:24.041Z,4.00
2019-05-29T17:54:54.671Z,3.83
2019-05-29T17:57:25.979Z,4.15
2019-05-29T17:59:56.716Z,5.12
2019-05-29T18:02:27.187Z,4.28
2019-05-29T18:04:57.923Z,4.50
2019-05-29T18:07:28.140Z,4.70
2019-05-29T18:09:59.215Z,4.30
2019-05-29T18:12:30.023Z,4.33
2019-05-29T18:15:00.724Z,3.80
2019-05-29T18:17:31.217Z,4.00
2019-05-29T18:20:01.745Z,4.45
2019-05-29T18:22:32.194Z,3.95
2019-05-29T18:25:02.769Z,4.30
2019-05-29T18:27:33.437Z,4.20
2019-05-29T18:30:04.035Z,4.00
2019-05-29T18:32:34.267Z,4.28
2019-05-29T18:35:06.318Z,3.72
2019-05-29T18:37:37.236Z,3.55
2019-05-29T18:40:12.497Z,3.70
2019-05-29T18:42:42.110Z,3.77
2019-05-29T18:45:20.761Z,3.50
2019-05-29T18:47:47.141Z,4.17
2019-05-29T18:50:21.370Z,4.22
2019-05-29T18:52:51.947Z,3.77
2019-05-29T18:55:22.794Z,3.87
2019-05-29T18:57:53.183Z,3.70
2019-05-29T19:00:25.340Z,3.60
2019-05-29T19:02:55.972Z,3.65
2019-05-29T19:05:26.147Z,3.55
2019-05-29T19:07:56.656Z,3.35
2019-05-29T19:10:27.715Z,3.35
2019-05-29T19:12:58.310Z,3.40
2019-05-29T19:15:30.074Z,3.35
2019-05-29T19:18:00.622Z,3.25
2019-05-29T19:20:32.539Z,3.35
2019-05-29T19:23:02.871Z,3.20
2019-05-29T19:25:33.369Z,3.42
2019-05-29T19:28:04.242Z,3.55
2019-05-29T19:30:34.852Z,3.85
2019-05-29T19:33:05.073Z,3.98
2019-05-29T19:35:35.428Z,3.50
2019-05-29T19:38:05.870Z,3.05
2019-05-29T19:40:36.130Z,3.37
2019-05-29T19:43:06.264Z,3.50
2019-05-29T19:45:36.400Z,3.40
2019-05-29T19:48:06.999Z,3.40
2019-05-29T19:50:37.251Z,3.72
2019-05-29T19:53:07.245Z,3.55
2019-05-29T19:55:38.382Z,3.70
2019-05-29T19:58:08.792Z,3.20
2019-05-29T20:00:39.403Z,3.60
2019-05-29T20:03:09.337Z,3.50
2019-05-29T20:05:38.976Z,3.50
2019-05-29T20:08:09.133Z,3.30
2019-05-29T20:10:38.997Z,3.17
2019-05-29T20:13:08.733Z,3.60
2019-05-29T20:15:38.735Z,3.40
2019-05-29T20:18:08.443Z,3.30
2019-05-29T20:20:38.747Z,3.40
2019-05-29T20:23:08.580Z,3.65
2019-05-29T20:25:39.054Z,3.17
2019-05-29T20:28:08.933Z,3.35
2019-05-29T20:30:38.823Z,3.50
2019-05-29T20:33:08.632Z,3.12
2019-05-29T20:35:39.146Z,3.75
2019-05-29T20:38:09.106Z,4.30
2019-05-29T20:40:39.452Z,3.70
2019-05-29T20:43:09.357Z,3.35
2019-05-29T20:45:39.727Z,4.10
2019-05-29T20:48:09.793Z,3.70
2019-05-29T20:50:39.661Z,3.40
2019-05-29T20:53:09.666Z,3.95
2019-05-29T20:55:39.865Z,3.67
2019-05-29T20:58:23.517Z,3.98
2019-05-29T21:00:42.337Z,3.75
2019-05-29T21:03:12.326Z,4.35
2019-05-29T21:05:42.875Z,3.87
2019-05-29T21:08:12.948Z,4.05
2019-05-29T21:10:43.599Z,4.00
2019-05-29T21:13:13.837Z,4.20
2019-05-29T21:15:43.837Z,4.80
2019-05-29T21:18:13.598Z,4.55
2019-05-29T21:20:44.621Z,4.20
2019-05-29T21:23:14.806Z,4.35
2019-05-29T21:25:44.954Z,5.47
2019-05-29T21:28:14.758Z,5.87
2019-05-29T21:30:45.591Z,5.65
2019-05-29T21:33:15.626Z,5.95
2019-05-29T21:35:46.362Z,5.40
2019-05-29T21:38:16.361Z,5.20
2019-05-29T21:40:46.723Z,5.70
2019-05-29T21:43:16.759Z,5.45
2019-05-29T21:45:47.275Z,5.42
2019-05-29T21:48:17.148Z,5.10
2019-05-29T21:50:47.445Z,5.78
2019-05-29T21:53:17.259Z,5.42
2019-05-29T21:55:47.831Z,5.60
2019-05-29T21:58:17.829Z,5.70
2019-05-29T22:00:50.458Z,5.65
2019-05-29T22:03:20.581Z,5.17
2019-05-29T22:05:50.869Z,5.17
2019-05-29T22:08:20.679Z,5.37
2019-05-29T22:10:51.434Z,5.30
2019-05-29T22:13:21.375Z,5.00
2019-05-29T22:15:51.032Z,4.58
2019-05-29T22:18:21.004Z,4.75
2019-05-29T22:20:51.138Z,4.75
2019-05-29T22:23:21.373Z,4.92
2019-05-29T22:25:51.339Z,4.62
2019-05-29T22:28:21.320Z,4.90
2019-05-29T22:30:51.362Z,4.60
2019-05-29T22:33:21.387Z,4.80
2019-05-29T22:35:52.675Z,4.80
2019-05-29T22:38:22.830Z,4.92
2019-05-29T22:40:53.788Z,4.85
2019-05-29T22:43:23.889Z,5.17
2019-05-29T22:45:53.821Z,5.20
2019-05-29T22:48:23.587Z,4.70
2019-05-29T22:50:53.923Z,5.20
2019-05-29T22:53:23.932Z,5.15
2019-05-29T22:55:53.869Z,4.60
2019-05-29T22:58:23.518Z,4.95
2019-05-29T23:00:53.950Z,5.05
2019-05-29T23:03:23.895Z,5.12
2019-05-29T23:05:54.276Z,5.20
2019-05-29T23:08:24.338Z,4.35
2019-05-29T23:10:54.558Z,5.05
2019-05-29T23:13:24.583Z,5.42
2019-05-29T23:15:54.562Z,5.15
2019-05-29T23:18:24.579Z,5.05
2019-05-29T23:20:54.549Z,4.80
2019-05-29T23:23:24.569Z,4.92
2019-05-29T23:25:54.564Z,4.78
2019-05-29T23:28:24.665Z,4.45
2019-05-29T23:30:54.653Z,5.20
2019-05-29T23:33:24.630Z,4.95
2019-05-29T23:35:54.841Z,4.55
2019-05-29T23:38:24.666Z,4.90
2019-05-29T23:40:55.252Z,5.10
2019-05-29T23:43:25.417Z,5.05
2019-05-29T23:45:55.383Z,5.17
2019-05-29T23:48:25.360Z,5.00
2019-05-29T23:50:55.584Z,5.45
2019-05-29T23:53:25.452Z,5.65
2019-05-29T23:55:55.752Z,5.42
2019-05-29T23:58:25.595Z,5.50
